createdAt,value
2023-01-20T00:00:03.768Z,97951.41
2023-01-20T00:05:25.499Z,97955.22
2023-01-20T00:10:47.233Z,97965.31
2023-01-20T00:16:10.783Z,97962.16
2023-01-20T00:21:32.744Z,97981.09
2023-01-20T00:26:54.485Z,97981.09
2023-01-20T00:32:16.190Z,97984.00
2023-01-20T00:37:38.465Z,97989.66
2023-01-20T00:43:00.192Z,97996.91
2023-01-20T00:48:22.022Z,97999.78
2023-01-20T00:53:43.777Z,98005.84
2023-01-20T00:59:05.492Z,98014.13
2023-01-20T01:04:27.285Z,98017.63
2023-01-20T01:09:49.023Z,98019.41
2023-01-20T01:15:11.344Z,98023.28
2023-01-20T01:20:33.231Z,98024.88
2023-01-20T01:25:54.962Z,98037.34
2023-01-20T01:31:18.895Z,98038.06
2023-01-20T01:36:40.695Z,98048.63
2023-01-20T01:42:02.463Z,98051.84
2023-01-20T01:47:24.467Z,98057.47
2023-01-20T01:52:50.360Z,98060.44
2023-01-20T01:58:15.608Z,98055.66
2023-01-20T02:04:09.516Z,98057.97
2023-01-20T02:09:31.666Z,98057.97
2023-01-20T02:14:56.533Z,98056.47
2023-01-20T02:20:57.609Z,98066.63
2023-01-20T02:26:31.127Z,98067.59
2023-01-20T02:32:21.361Z,98067.75
2023-01-20T02:37:52.012Z,98078.56
2023-01-20T02:43:28.946Z,98074.59
2023-01-20T02:49:15.002Z,98082.03
2023-01-20T02:54:40.002Z,98084.69
2023-01-20T03:00:07.760Z,98091.38
2023-01-20T03:05:33.154Z,98095.28
2023-01-20T03:10:59.266Z,98094.72
2023-01-20T03:16:23.689Z,98101.53
2023-01-20T03:21:45.717Z,98100.16
2023-01-20T03:27:07.790Z,98108.34
2023-01-20T03:32:29.921Z,98112.19
2023-01-20T03:37:52.078Z,98112.75
2023-01-20T03:43:38.718Z,98126.16
2023-01-20T03:49:35.939Z,98124.50
2023-01-20T03:55:07.215Z,98129.94
2023-01-20T04:00:32.701Z,98141.03
2023-01-20T04:05:58.217Z,98148.63
2023-01-20T04:11:20.487Z,98142.50
2023-01-20T04:16:43.268Z,98146.25
2023-01-20T04:22:12.401Z,98158.63
2023-01-20T04:27:34.188Z,98161.75
2023-01-20T04:32:55.901Z,98160.44
2023-01-20T04:38:17.612Z,98171.31
2023-01-20T04:43:43.874Z,98169.00
2023-01-20T04:49:05.652Z,98175.00
2023-01-20T04:54:27.415Z,98183.63
2023-01-20T04:59:49.918Z,98193.84
2023-01-20T05:05:11.652Z,98203.09
2023-01-20T05:10:33.730Z,98211.91
2023-01-20T05:15:55.634Z,98224.16
2023-01-20T05:21:17.432Z,98221.50
2023-01-20T05:26:39.161Z,98227.34
2023-01-20T05:32:00.900Z,98242.50
2023-01-20T05:37:22.633Z,98246.91
2023-01-20T05:42:44.373Z,98251.97
2023-01-20T05:48:06.406Z,98254.09
2023-01-20T05:53:28.110Z,98266.75
2023-01-20T05:58:54.125Z,98266.41
2023-01-20T06:04:15.828Z,98268.28
2023-01-20T06:09:37.602Z,98271.00
2023-01-20T06:14:59.327Z,98276.56
2023-01-20T06:20:21.122Z,98282.44
2023-01-20T06:25:43.925Z,98281.47
2023-01-20T06:31:11.754Z,98293.47
2023-01-20T06:36:33.530Z,98288.84
2023-01-20T06:41:59.570Z,98302.84
2023-01-20T06:47:21.304Z,98313.34
2023-01-20T06:52:43.085Z,98319.81
2023-01-20T06:58:04.832Z,98328.34
2023-01-20T07:03:26.565Z,98343.63
2023-01-20T07:08:48.382Z,98355.59
2023-01-20T07:14:10.396Z,98358.72
2023-01-20T07:19:32.108Z,98359.22
2023-01-20T07:24:53.842Z,98373.78
2023-01-20T07:30:15.951Z,98386.59
2023-01-20T07:35:37.659Z,98391.81
2023-01-20T07:41:18.211Z,98402.44
2023-01-20T07:46:39.899Z,98410.41
2023-01-20T07:52:01.649Z,98417.41
2023-01-20T07:57:23.438Z,98421.72
2023-01-20T08:02:45.198Z,98428.19
2023-01-20T08:08:06.914Z,98434.16
2023-01-20T08:13:29.274Z,98438.16
2023-01-20T08:18:54.593Z,98443.78
2023-01-20T08:24:16.332Z,98452.44
2023-01-20T08:29:38.099Z,98461.88
2023-01-20T08:34:59.990Z,98463.94
2023-01-20T08:40:21.820Z,98461.94
2023-01-20T08:45:43.783Z,98463.22
2023-01-20T08:51:14.336Z,98476.97
2023-01-20T08:56:36.798Z,98492.88
2023-01-20T09:01:58.554Z,98496.41
2023-01-20T09:07:20.565Z,98498.19
2023-01-20T09:12:42.334Z,98507.75
2023-01-20T09:18:04.152Z,98512.84
2023-01-20T09:23:26.676Z,98512.84
2023-01-20T09:28:48.398Z,98524.19
2023-01-20T09:34:11.871Z,98517.75
2023-01-20T09:39:53.299Z,98530.19
2023-01-20T09:45:24.542Z,98538.75
2023-01-20T09:51:15.309Z,98536.44
2023-01-20T09:56:43.841Z,98542.78
2023-01-20T10:02:17.071Z,98548.69
2023-01-20T10:07:50.642Z,98548.38
2023-01-20T10:13:56.388Z,98546.38
2023-01-20T10:19:27.096Z,98548.41
2023-01-20T10:25:13.858Z,98543.53
2023-01-20T10:30:37.266Z,98555.41
2023-01-20T10:36:00.383Z,98546.88
2023-01-20T10:41:26.943Z,98547.63
2023-01-20T10:47:14.862Z,98552.84
2023-01-20T10:52:56.126Z,98557.38
2023-01-20T10:58:31.282Z,98556.47
2023-01-20T11:03:53.156Z,98553.56
2023-01-20T11:09:27.442Z,98557.09
2023-01-20T11:14:49.600Z,98558.53
2023-01-20T11:20:19.589Z,98552.88
2023-01-20T11:25:41.321Z,98549.91
2023-01-20T11:31:04.462Z,98558.84
2023-01-20T11:36:27.605Z,98559.88
2023-01-20T11:41:49.323Z,98562.19
2023-01-20T11:47:26.141Z,98562.00
2023-01-20T11:52:47.922Z,98554.03
2023-01-20T11:58:25.888Z,98556.47
2023-01-20T12:03:53.557Z,98567.19
2023-01-20T12:09:18.255Z,98566.97
2023-01-20T12:15:02.366Z,98566.56
2023-01-20T12:20:42.322Z,98578.88
2023-01-20T12:26:13.087Z,98583.13
2023-01-20T12:31:34.970Z,98579.34
2023-01-20T12:37:16.813Z,98578.97
2023-01-20T12:43:02.051Z,98592.69
2023-01-20T12:48:48.637Z,98583.13
2023-01-20T12:54:42.960Z,98589.94
2023-01-20T13:00:23.203Z,98597.69
2023-01-20T13:06:12.949Z,98596.75
2023-01-20T13:11:54.085Z,98596.13
2023-01-20T13:17:30.086Z,98592.75
2023-01-20T13:22:54.618Z,98596.94
2023-01-20T13:28:19.409Z,98597.50
2023-01-20T13:33:42.240Z,98600.69
2023-01-20T13:39:40.431Z,98607.47
2023-01-20T13:45:14.809Z,98613.50
2023-01-20T13:50:41.680Z,98609.97
2023-01-20T13:56:03.503Z,98615.97
2023-01-20T14:01:26.809Z,98623.78
2023-01-20T14:06:51.202Z,98625.88
2023-01-20T14:12:13.000Z,98618.91
2023-01-20T14:17:34.719Z,98616.88
2023-01-20T14:23:23.280Z,98627.41
2023-01-20T14:28:48.609Z,98622.78
2023-01-20T14:34:25.706Z,98629.84
2023-01-20T14:39:49.981Z,98633.66
2023-01-20T14:45:23.536Z,98638.47
2023-01-20T14:50:52.387Z,98637.34
2023-01-20T14:56:19.430Z,98644.78
2023-01-20T15:01:41.239Z,98645.22
2023-01-20T15:07:03.147Z,98645.63
2023-01-20T15:12:47.053Z,98645.66
2023-01-20T15:18:11.810Z,98655.84
2023-01-20T15:23:39.272Z,98660.84
2023-01-20T15:29:01.091Z,98669.91
2023-01-20T15:34:23.541Z,98670.97
2023-01-20T15:39:45.901Z,98675.34
2023-01-20T15:45:08.586Z,98677.19
2023-01-20T15:50:31.534Z,98680.75
2023-01-20T15:55:53.430Z,98686.97
2023-01-20T16:01:17.926Z,98699.06
2023-01-20T16:06:39.828Z,98699.16
2023-01-20T16:12:01.718Z,98708.47
2023-01-20T16:17:25.276Z,98710.44
2023-01-20T16:22:47.067Z,98714.03
2023-01-20T16:28:18.567Z,98727.34
2023-01-20T16:33:40.413Z,98723.06
2023-01-20T16:39:02.115Z,98729.84
2023-01-20T16:44:23.833Z,98729.66
2023-01-20T16:49:45.690Z,98740.72
2023-01-20T16:55:07.780Z,98740.03
2023-01-20T17:00:29.475Z,98747.28
2023-01-20T17:05:51.207Z,98758.84
2023-01-20T17:11:20.401Z,98760.41
2023-01-20T17:16:42.239Z,98766.38
2023-01-20T17:22:03.997Z,98767.44
2023-01-20T17:27:25.738Z,98766.56
2023-01-20T17:32:48.438Z,98775.34
2023-01-20T17:38:10.304Z,98775.28
2023-01-20T17:43:33.538Z,98775.25
2023-01-20T17:48:59.891Z,98779.22
2023-01-20T17:54:21.587Z,98778.44
2023-01-20T17:59:43.381Z,98785.47
2023-01-20T18:05:05.504Z,98792.44
2023-01-20T18:10:27.748Z,98790.63
2023-01-20T18:15:49.655Z,98795.19
2023-01-20T18:21:19.459Z,98793.53
2023-01-20T18:26:44.932Z,98805.19
2023-01-20T18:32:06.759Z,98799.84
2023-01-20T18:37:28.655Z,98800.00
2023-01-20T18:42:50.405Z,98803.50
2023-01-20T18:48:12.115Z,98803.00
2023-01-20T18:53:34.008Z,98808.22
2023-01-20T18:58:56.125Z,98815.75
2023-01-20T19:04:18.094Z,98819.13
2023-01-20T19:09:39.902Z,98822.53
2023-01-20T19:15:01.670Z,98828.19
2023-01-20T19:20:23.496Z,98823.91
2023-01-20T19:25:45.249Z,98827.59
2023-01-20T19:31:08.790Z,98825.09
2023-01-20T19:36:31.390Z,98824.25
2023-01-20T19:41:53.604Z,98830.84
2023-01-20T19:47:15.391Z,98832.50
2023-01-20T19:52:37.143Z,98836.97
2023-01-20T19:58:00.927Z,98833.50
2023-01-20T20:03:22.695Z,98833.09
2023-01-20T20:08:44.540Z,98834.66
2023-01-20T20:14:08.129Z,98843.91
2023-01-20T20:19:30.013Z,98843.06
2023-01-20T20:24:52.852Z,98847.31
2023-01-20T20:30:15.045Z,98850.78
2023-01-20T20:35:37.686Z,98844.63
2023-01-20T20:40:59.739Z,98848.91
2023-01-20T20:46:21.748Z,98848.91
2023-01-20T20:51:43.856Z,98857.66
2023-01-20T20:57:07.500Z,98856.00
2023-01-20T21:02:29.301Z,98860.25
2023-01-20T21:07:51.263Z,98862.81
2023-01-20T21:13:13.036Z,98862.59
2023-01-20T21:18:36.172Z,98868.59
2023-01-20T21:23:59.656Z,98867.09
2023-01-20T21:29:21.426Z,98875.84
2023-01-20T21:34:43.195Z,98873.28
2023-01-20T21:40:05.854Z,98884.19
2023-01-20T21:45:27.554Z,98878.13
2023-01-20T21:51:07.950Z,98890.81
2023-01-20T21:56:29.679Z,98888.13
2023-01-20T22:01:51.709Z,98883.00
2023-01-20T22:07:15.533Z,98897.53
2023-01-20T22:12:37.383Z,98901.16
2023-01-20T22:17:59.319Z,98908.91
2023-01-20T22:23:21.056Z,98917.44
2023-01-20T22:28:43.173Z,98919.28
2023-01-20T22:34:06.295Z,98920.13
2023-01-20T22:39:28.327Z,98922.75
2023-01-20T22:44:50.108Z,98924.28
2023-01-20T22:50:11.981Z,98931.19
2023-01-20T22:55:33.702Z,98932.38
2023-01-20T23:00:55.479Z,98934.34
2023-01-20T23:06:17.997Z,98936.97
2023-01-20T23:11:40.518Z,98935.03
2023-01-20T23:17:02.220Z,98951.59
2023-01-20T23:22:24.207Z,98942.47
2023-01-20T23:27:45.971Z,98943.00
2023-01-20T23:33:08.575Z,98940.44
2023-01-20T23:38:30.856Z,98942.28
2023-01-20T23:43:52.750Z,98954.28
2023-01-20T23:49:14.569Z,98951.63
2023-01-20T23:54:36.293Z,98958.19
2023-01-20T23:59:58.040Z,98966.50
